Time;durP1;ratioP1;P1;durP2;ratioP2;P2;SDS_P1;SDS_P2;PMS_P1;PMS_P2;Temp;Humidity;BMP_temperature;BMP_pressure;BME280_temperature;BME280_humidity;BME280_pressure;Samples;Min_cycle;Max_cycle;Signal;HPM_P1;HPM_P2
2021/01/14 00:00:53;;;;;;;0.60;0.35;;;5.60;99.90;;;;;;20893108;28;20036;-81
2021/01/14 00:10:54;;;;;;;0.37;0.33;;;5.60;99.90;;;;;;20890004;28;20037;-80
2021/01/14 00:20:55;;;;;;;0.40;0.37;;;5.70;99.90;;;;;;20926013;28;20029;-81
2021/01/14 00:30:56;;;;;;;0.30;0.30;;;5.80;99.90;;;;;;20907910;28;20025;-80
2021/01/14 00:40:57;;;;;;;0.57;0.47;;;5.60;99.90;;;;;;20901055;28;20041;-82
2021/01/14 00:50:58;;;;;;;0.43;0.43;;;5.70;99.90;;;;;;20931564;28;20037;-81
2021/01/14 01:00:59;;;;;;;0.90;0.50;;;5.70;99.90;;;;;;20949386;28;20052;-81
2021/01/14 01:10:59;;;;;;;0.90;0.50;;;5.70;99.90;;;;;;20905297;28;20052;-81
2021/01/14 01:21:04;;;;;;;1.00;0.93;;;5.80;99.90;;;;;;20919474;28;20033;-80
2021/01/14 01:31:05;;;;;;;1.00;0.60;;;5.80;99.90;;;;;;20931572;28;20087;-80
2021/01/14 01:41:06;;;;;;;0.77;0.60;;;5.70;99.90;;;;;;20914550;28;20036;-80
2021/01/14 01:51:07;;;;;;;0.93;0.50;;;5.60;99.90;;;;;;20945939;28;20068;-80
2021/01/14 02:01:08;;;;;;;1.40;0.60;;;5.80;99.90;;;;;;20929161;28;20037;-81
2021/01/14 02:11:11;;;;;;;;;;;5.80;99.90;;;;;;20930021;28;20074;-80
2021/01/14 02:21:15;;;;;;;0.73;0.63;;;5.70;99.90;;;;;;20936240;28;20341;-78
2021/01/14 02:31:16;;;;;;;1.35;0.52;;;5.90;99.90;;;;;;20887165;28;20283;-79
2021/01/14 02:41:17;;;;;;;0.83;0.43;;;5.90;99.90;;;;;;20931695;28;20052;-80
2021/01/14 02:51:47;;;;;;;0.67;0.30;;;5.80;99.90;;;;;;20978889;28;20038;-79
2021/01/14 03:01:48;;;;;;;0.40;0.30;;;5.80;99.90;;;;;;20941878;28;20037;-81
2021/01/14 03:11:49;;;;;;;0.30;0.30;;;5.80;99.90;;;;;;20953289;28;20033;-81
2021/01/14 03:21:50;;;;;;;0.40;0.40;;;5.80;99.90;;;;;;20953179;28;20044;-79
2021/01/14 03:31:51;;;;;;;0.20;0.20;;;5.90;99.90;;;;;;20958112;28;20649;-81
2021/01/14 03:41:53;;;;;;;0.23;0.23;;;5.80;99.90;;;;;;20945974;28;20299;-80
2021/01/14 03:51:54;;;;;;;0.20;0.20;;;5.90;99.90;;;;;;20949946;28;20064;-76
2021/01/14 04:02:06;;;;;;;0.47;0.37;;;5.80;99.90;;;;;;20934609;28;20044;-80
2021/01/14 04:12:07;;;;;;;0.20;0.20;;;6.00;99.90;;;;;;20930919;28;20033;-77
2021/01/14 04:22:08;;;;;;;0.32;0.32;;;6.00;99.90;;;;;;21004055;28;20043;-78
2021/01/14 04:32:09;;;;;;;0.30;0.30;;;5.90;99.90;;;;;;20963113;28;20033;-78
2021/01/14 04:42:15;;;;;;;0.30;0.30;;;5.90;99.90;;;;;;21006317;28;20032;-75
2021/01/14 04:52:17;;;;;;;0.30;0.30;;;5.80;99.90;;;;;;21039885;28;20048;-77
2021/01/14 05:02:24;;;;;;;0.20;0.20;;;5.80;99.90;;;;;;21033445;28;20040;-79
2021/01/14 05:12:25;;;;;;;0.20;0.20;;;5.90;99.90;;;;;;20986070;28;20127;-80
2021/01/14 05:22:26;;;;;;;0.30;0.30;;;5.80;99.90;;;;;;20984923;28;20449;-79
2021/01/14 05:32:35;;;;;;;0.60;0.50;;;5.90;99.90;;;;;;20983021;28;20093;-79
2021/01/14 05:42:36;;;;;;;0.20;0.20;;;5.80;99.90;;;;;;20982688;28;20431;-80
2021/01/14 05:52:37;;;;;;;0.40;0.30;;;5.80;99.90;;;;;;20983742;28;20044;-78
2021/01/14 06:02:38;;;;;;;0.40;0.20;;;5.60;99.90;;;;;;21013671;28;20033;-81
2021/01/14 06:12:49;;;;;;;0.33;0.33;;;5.50;99.90;;;;;;20999868;28;20116;-79
2021/01/14 06:22:56;;;;;;;0.80;0.60;;;4.90;99.90;;;;;;21022418;28;20056;-77
2021/01/14 06:33:03;;;;;;;1.08;0.70;;;4.00;99.90;;;;;;21040992;28;20032;-79
2021/01/14 06:43:12;;;;;;;2.03;1.10;;;3.30;99.90;;;;;;21028280;28;20035;-79
2021/01/14 06:53:15;;;;;;;1.70;1.00;;;3.00;99.90;;;;;;20996119;28;20032;-78
2021/01/14 07:03:20;;;;;;;0.95;0.80;;;2.80;99.90;;;;;;21013727;28;20029;-79
2021/01/14 07:13:28;;;;;;;1.17;0.80;;;2.70;99.90;;;;;;21140742;22;20072;-79
2021/01/14 07:23:33;;;;;;;2.10;1.10;;;2.50;99.90;;;;;;21144346;28;20063;-81
2021/01/14 07:33:33;;;;;;;2.60;1.38;;;2.30;99.90;;;;;;21161058;28;20035;-81
2021/01/14 07:43:35;;;;;;;2.47;1.77;;;2.00;99.90;;;;;;21163160;28;20057;-81
2021/01/14 07:53:36;;;;;;;2.10;1.70;;;1.90;99.90;;;;;;21186483;28;20046;-83
2021/01/14 08:03:44;;;;;;;2.35;1.77;;;1.70;99.90;;;;;;21166828;28;20039;-80
2021/01/14 08:14:09;;;;;;;2.67;1.73;;;1.40;99.90;;;;;;21188435;28;20155;-80
2021/01/14 08:24:12;;;;;;;3.67;2.28;;;1.40;99.90;;;;;;21184028;28;20536;-82
2021/01/14 08:34:15;;;;;;;3.53;2.70;;;1.30;99.90;;;;;;21194029;28;20034;-78
2021/01/14 08:44:17;;;;;;;9.05;5.40;;;1.20;99.90;;;;;;21186259;28;20028;-81
2021/01/14 08:54:18;;;;;;;22.05;10.88;;;1.20;99.90;;;;;;21191229;28;20031;-81
2021/01/14 09:04:19;;;;;;;;;;;1.30;99.90;;;;;;21190043;28;20073;-82
2021/01/14 09:14:20;;;;;;;2.28;1.95;;;1.60;99.90;;;;;;21188223;28;19946;-81
2021/01/14 09:24:20;;;;;;;15.82;6.75;;;1.70;99.90;;;;;;21191547;28;20028;-82
2021/01/14 09:34:22;;;;;;;1.93;1.50;;;1.80;99.90;;;;;;21180861;28;20031;-80
2021/01/14 09:44:23;;;;;;;36.97;3.13;;;1.90;99.90;;;;;;21177920;28;20311;-81
2021/01/14 09:54:24;;;;;;;2.65;1.80;;;1.80;99.90;;;;;;21173455;28;20024;-82
2021/01/14 10:04:26;;;;;;;3.95;2.83;;;1.90;99.90;;;;;;21200759;28;20066;-82
2021/01/14 10:14:27;;;;;;;3.90;2.50;;;2.10;99.90;;;;;;21181637;28;20027;-81
2021/01/14 10:24:30;;;;;;;3.50;2.03;;;2.00;99.90;;;;;;21167064;28;20489;-82
2021/01/14 10:34:46;;;;;;;11.40;3.10;;;2.20;99.90;;;;;;21196984;28;20068;-80
2021/01/14 10:45:00;;;;;;;5.03;2.90;;;2.10;99.90;;;;;;21172238;28;20081;-80
2021/01/14 10:55:02;;;;;;;8.75;5.40;;;2.40;99.90;;;;;;21143487;28;20501;-82
2021/01/14 11:05:03;;;;;;;6.82;4.18;;;2.50;99.90;;;;;;21176553;28;20160;-82
2021/01/14 11:15:05;;;;;;;3.25;2.45;;;2.40;99.90;;;;;;21153610;28;20028;-83
2021/01/14 11:25:06;;;;;;;;;;;2.10;99.90;;;;;;21137220;28;20118;-80
2021/01/14 11:35:07;;;;;;;1.85;1.33;;;2.20;99.90;;;;;;21153053;28;19919;-82
2021/01/14 11:45:09;;;;;;;2.42;1.73;;;2.00;99.90;;;;;;21153563;28;20490;-80
2021/01/14 11:55:11;;;;;;;1.40;1.13;;;1.60;99.90;;;;;;21134517;28;20024;-80
2021/01/14 12:05:12;;;;;;;2.78;0.80;;;1.60;99.90;;;;;;21168899;28;20050;-83
2021/01/14 12:15:13;;;;;;;0.60;0.60;;;1.30;99.90;;;;;;21152500;28;20057;-81
2021/01/14 12:25:14;;;;;;;0.70;0.70;;;1.30;99.90;;;;;;21158429;28;20035;-81
2021/01/14 12:35:14;;;;;;;;;;;1.60;99.90;;;;;;21162948;28;20056;-83
2021/01/14 12:45:15;;;;;;;2.10;0.90;;;1.90;99.90;;;;;;21167985;28;19950;-77
2021/01/14 12:55:18;;;;;;;2.75;1.55;;;1.90;99.90;;;;;;21194360;28;20277;-79
2021/01/14 13:05:19;;;;;;;2.90;1.65;;;1.50;99.90;;;;;;21173315;28;20469;-80
2021/01/14 13:15:20;;;;;;;3.78;2.22;;;1.30;99.90;;;;;;21136817;22;20040;-78
2021/01/14 13:25:21;;;;;;;;;;;1.30;99.90;;;;;;21045549;28;20103;-80
2021/01/14 13:35:22;;;;;;;2.97;2.45;;;1.10;99.90;;;;;;21029831;28;19916;-80
2021/01/14 13:45:23;;;;;;;3.80;2.50;;;1.10;99.90;;;;;;21040098;28;20029;-79
2021/01/14 13:55:24;;;;;;;3.88;1.48;;;1.20;99.90;;;;;;21005734;28;20436;-78
2021/01/14 14:05:24;;;;;;;3.25;1.63;;;0.80;99.90;;;;;;21017655;28;20033;-79
2021/01/14 14:15:26;;;;;;;1.88;1.50;;;0.70;99.90;;;;;;21020574;28;20119;-79
2021/01/14 14:25:27;;;;;;;1.67;1.10;;;0.70;99.90;;;;;;21029685;28;20028;-78
2021/01/14 14:35:28;;;;;;;2.17;1.25;;;0.50;99.90;;;;;;20970944;28;20040;-78
2021/01/14 14:45:29;;;;;;;1.92;1.58;;;0.30;99.90;;;;;;20969365;28;20487;-80
2021/01/14 14:55:31;;;;;;;2.80;2.20;;;0.40;99.90;;;;;;21004121;28;20032;-79
2021/01/14 15:05:32;;;;;;;2.28;1.73;;;0.30;99.90;;;;;;20963854;28;20039;-78
2021/01/14 15:15:33;;;;;;;2.78;2.17;;;0.30;99.90;;;;;;20962231;28;20032;-79
2021/01/14 15:25:40;;;;;;;5.38;3.30;;;0.30;99.90;;;;;;20980455;28;20036;-79
2021/01/14 15:35:41;;;;;;;3.63;2.30;;;0.30;99.90;;;;;;20985003;28;20033;-80
2021/01/14 15:45:41;;;;;;;1.75;1.27;;;0.20;99.90;;;;;;20947719;28;20050;-79
2021/01/14 15:55:42;;;;;;;1.88;1.30;;;0.10;99.90;;;;;;20981537;28;20036;-80
2021/01/14 16:05:43;;;;;;;6.43;3.53;;;0.00;99.90;;;;;;20948638;28;20032;-79
2021/01/14 16:15:44;;;;;;;5.50;2.90;;;0.00;99.90;;;;;;20957613;28;20028;-79
2021/01/14 16:25:45;;;;;;;1.55;1.20;;;0.00;99.90;;;;;;20924335;28;20093;-77
2021/01/14 16:35:45;;;;;;;4.03;2.70;;;-0.10;99.90;;;;;;20877373;28;20036;-78
2021/01/14 16:45:46;;;;;;;1.30;1.15;;;-0.10;99.90;;;;;;20953960;28;20037;-77
2021/01/14 16:55:47;;;;;;;19.70;5.75;;;-0.20;99.90;;;;;;20946566;28;20041;-78
2021/01/14 17:05:48;;;;;;;4.95;2.58;;;-0.20;99.90;;;;;;20944593;28;20520;-77
2021/01/14 17:15:48;;;;;;;12.05;4.65;;;-0.10;99.90;;;;;;20960200;28;20040;-79
2021/01/14 17:25:49;;;;;;;4.85;2.28;;;-0.10;99.90;;;;;;20977615;28;20525;-78
2021/01/14 17:35:50;;;;;;;3.15;1.70;;;-0.20;99.90;;;;;;20955191;28;20482;-78
2021/01/14 17:45:51;;;;;;;2.35;1.50;;;-0.20;99.90;;;;;;20935888;28;20029;-78
2021/01/14 17:55:52;;;;;;;3.70;2.00;;;-0.20;99.90;;;;;;20896875;28;20040;-78
2021/01/14 18:05:53;;;;;;;1.58;1.23;;;-0.20;99.90;;;;;;20888887;28;20162;-78
2021/01/14 18:15:54;;;;;;;10.38;4.75;;;-0.20;99.90;;;;;;20911464;28;20454;-78
2021/01/14 18:25:55;;;;;;;1.80;1.27;;;-0.20;99.90;;;;;;20957879;28;20057;-79
2021/01/14 18:35:56;;;;;;;3.63;1.90;;;-0.10;99.90;;;;;;20951763;28;20131;-78
2021/01/14 18:45:57;;;;;;;1.95;1.40;;;-0.20;99.90;;;;;;20887629;28;20033;-78
2021/01/14 18:55:58;;;;;;;4.30;2.00;;;0.00;99.90;;;;;;20888708;28;20025;-79
2021/01/14 19:06:02;;;;;;;2.22;1.55;;;0.00;99.90;;;;;;20872578;28;20029;-79
2021/01/14 19:16:08;;;;;;;3.42;2.33;;;-0.10;99.90;;;;;;21062544;23;20770;-80
2021/01/14 19:26:14;;;;;;;5.75;3.20;;;-0.10;99.90;;;;;;20992292;28;20063;-80
2021/01/14 19:36:16;;;;;;;8.52;4.82;;;-0.10;99.90;;;;;;20993886;28;20105;-81
2021/01/14 19:46:18;;;;;;;6.63;4.63;;;-0.10;99.90;;;;;;20995013;28;20044;-79
2021/01/14 19:56:21;;;;;;;5.13;3.30;;;-0.10;99.90;;;;;;20996604;28;20034;-80
2021/01/14 20:06:25;;;;;;;10.13;5.45;;;-0.20;99.90;;;;;;20987676;28;20035;-80
2021/01/14 20:16:27;;;;;;;16.02;7.53;;;-0.10;99.90;;;;;;20977108;28;20131;-80
2021/01/14 20:26:31;;;;;;;9.73;5.85;;;-0.10;99.90;;;;;;20966009;28;20063;-81
2021/01/14 20:36:52;;;;;;;9.80;4.97;;;-0.10;99.90;;;;;;20964792;28;20031;-80
2021/01/14 20:47:05;;;;;;;9.95;5.25;;;-0.10;99.90;;;;;;20964752;28;20036;-80
2021/01/14 20:57:09;;;;;;;8.20;4.75;;;-0.10;99.90;;;;;;20968835;28;20036;-80
2021/01/14 21:07:09;;;;;;;8.07;5.03;;;-0.10;99.90;;;;;;20989458;28;20055;-80
2021/01/14 21:17:10;;;;;;;10.73;5.53;;;-0.20;99.90;;;;;;20987344;28;20347;-82
2021/01/14 21:27:11;;;;;;;12.45;5.88;;;-0.10;99.90;;;;;;21029620;28;20060;-82
2021/01/14 21:37:12;;;;;;;12.32;6.05;;;-0.20;99.90;;;;;;21033230;28;20443;-77
2021/01/14 21:47:13;;;;;;;10.40;6.25;;;-0.20;99.90;;;;;;21039481;28;20380;-79
2021/01/14 21:57:14;;;;;;;11.07;5.82;;;-0.20;99.90;;;;;;21064094;28;20497;-81
2021/01/14 22:07:15;;;;;;;11.57;6.82;;;-0.20;99.90;;;;;;21039305;28;20028;-82
2021/01/14 22:17:16;;;;;;;14.10;7.32;;;-0.10;99.90;;;;;;21077013;28;20053;-78
2021/01/14 22:27:17;;;;;;;11.85;6.85;;;-0.20;99.90;;;;;;21094647;28;20081;-80
2021/01/14 22:37:18;;;;;;;11.38;6.70;;;-0.20;99.90;;;;;;21048266;28;20491;-80
2021/01/14 22:47:19;;;;;;;13.55;6.65;;;-0.20;99.90;;;;;;21047583;28;20024;-79
2021/01/14 22:57:20;;;;;;;14.07;7.18;;;-0.20;99.90;;;;;;21024792;28;20036;-77
2021/01/14 23:07:21;;;;;;;9.02;5.60;;;-0.20;99.90;;;;;;21056702;28;20397;-81
2021/01/14 23:17:22;;;;;;;12.07;6.10;;;-0.20;99.90;;;;;;21099367;28;20050;-81
2021/01/14 23:27:23;;;;;;;8.95;4.97;;;-0.20;99.90;;;;;;21076492;28;20060;-81
2021/01/14 23:37:23;;;;;;;10.48;5.32;;;-0.20;99.90;;;;;;21075020;28;20038;-80
2021/01/14 23:47:24;;;;;;;10.88;6.20;;;-0.20;99.90;;;;;;21115026;28;20504;-80
2021/01/14 23:57:25;;;;;;;8.82;5.95;;;-0.20;99.90;;;;;;21120911;28;20056;-80
